Main page
Satellite images 15-day forecastsClimateMarine weather Cyclones Lightning AirportsFAQ Newsletter About
Weather : Europe Africa North America South America Asia Australia-Oceania Others
Languages Contact

Warsaw, Poland

Fryderyk Chopin

latitude: 52-10N, longitude: 020-58E, elevation: 106 m


METAR: EPWA 231930Z 12006KT 8000 BKN017 02/01 Q1032 NOSIG
TAF: EPWA 231730Z 2318/2418 14006KT 8000 BKN015 TEMPO 2321/2407 5000 BR BKN007 BECMG 2408/2410 SCT030 BECMG 2415/2417 BKN014

Time: 20:40 (19:40 UTC)

Current weather observation

The report was made 10 minutes ago, at 19:30 UTC
Wind 6 kt from the East/Southeast
Temperature 2°C
Humidity 93%
Pressure 1032 hPa
Visibility: 8000 m
Broken clouds at a height of 1700 ft

Change units

Forecast

The report was made 2 hours and 10 minutes ago, at 17:30 UTC
Forecast valid from 23 at 18 UTC to 24 at 18 UTC
Wind 6 kt from the Southeast
Visibility: 8000 m
Broken clouds at a height of 1500 ft
Temporary
from 23 at 21 UTC to 24 at 07 UTC
Visibility: 5000 m
Broken clouds at a height of 700 ft
mist
Becoming
from 24 at 08 UTC to 24 at 10 UTC
Scattered clouds at a height of 3000 ft
Becoming
from 24 at 15 UTC to 24 at 17 UTC
Broken clouds at a height of 1400 ft
The information on this site is subject to a disclaimer
Weather : Europe Africa North America South America Asia Australia-Oceania Others
Satellite images 15-day forecastsClimateMarine weather Cyclones Lightning AirportsFAQ Languages Contact Newsletter About